sensor_id;sensor_type;location;lat;lon;timestamp;P1;durP1;ratioP1;P2;durP2;ratioP2
2474;SDS011;1248;48.694;10.160;2023-03-01T00:00:20;29.00;;;18.40;;
2474;SDS011;1248;48.694;10.160;2023-03-01T00:02:47;27.53;;;17.60;;
2474;SDS011;1248;48.694;10.160;2023-03-01T00:05:14;21.67;;;15.90;;
2474;SDS011;1248;48.694;10.160;2023-03-01T00:07:42;27.00;;;18.03;;
2474;SDS011;1248;48.694;10.160;2023-03-01T00:10:09;24.30;;;18.10;;
2474;SDS011;1248;48.694;10.160;2023-03-01T00:12:39;27.87;;;17.53;;
2474;SDS011;1248;48.694;10.160;2023-03-01T00:15:06;23.33;;;17.00;;
2474;SDS011;1248;48.694;10.160;2023-03-01T00:17:34;29.13;;;19.33;;
2474;SDS011;1248;48.694;10.160;2023-03-01T00:20:01;30.93;;;18.63;;
2474;SDS011;1248;48.694;10.160;2023-03-01T00:22:28;26.00;;;17.80;;
2474;SDS011;1248;48.694;10.160;2023-03-01T00:24:55;28.40;;;18.80;;
2474;SDS011;1248;48.694;10.160;2023-03-01T00:27:22;23.57;;;16.57;;
2474;SDS011;1248;48.694;10.160;2023-03-01T00:29:51;28.60;;;19.13;;
2474;SDS011;1248;48.694;10.160;2023-03-01T00:32:18;28.13;;;18.60;;
2474;SDS011;1248;48.694;10.160;2023-03-01T00:34:46;26.20;;;17.67;;
2474;SDS011;1248;48.694;10.160;2023-03-01T00:37:19;30.03;;;20.60;;
2474;SDS011;1248;48.694;10.160;2023-03-01T00:39:46;27.10;;;18.33;;
2474;SDS011;1248;48.694;10.160;2023-03-01T00:42:14;25.57;;;18.07;;
2474;SDS011;1248;48.694;10.160;2023-03-01T00:44:42;29.67;;;18.47;;
2474;SDS011;1248;48.694;10.160;2023-03-01T00:47:10;26.20;;;16.80;;
2474;SDS011;1248;48.694;10.160;2023-03-01T00:49:37;27.63;;;19.20;;
2474;SDS011;1248;48.694;10.160;2023-03-01T00:52:05;30.57;;;19.93;;
2474;SDS011;1248;48.694;10.160;2023-03-01T00:54:32;24.47;;;18.33;;
2474;SDS011;1248;48.694;10.160;2023-03-01T00:56:59;27.77;;;17.27;;
2474;SDS011;1248;48.694;10.160;2023-03-01T00:59:26;27.90;;;18.90;;
2474;SDS011;1248;48.694;10.160;2023-03-01T01:01:53;31.07;;;20.07;;
2474;SDS011;1248;48.694;10.160;2023-03-01T01:04:21;27.13;;;18.43;;
2474;SDS011;1248;48.694;10.160;2023-03-01T01:06:48;28.43;;;20.17;;
2474;SDS011;1248;48.694;10.160;2023-03-01T01:09:16;24.10;;;16.80;;
2474;SDS011;1248;48.694;10.160;2023-03-01T01:11:44;33.90;;;19.43;;
2474;SDS011;1248;48.694;10.160;2023-03-01T01:14:11;27.83;;;18.40;;
2474;SDS011;1248;48.694;10.160;2023-03-01T01:16:38;31.43;;;20.37;;
2474;SDS011;1248;48.694;10.160;2023-03-01T01:19:05;31.77;;;18.37;;
2474;SDS011;1248;48.694;10.160;2023-03-01T01:21:34;25.40;;;17.63;;
2474;SDS011;1248;48.694;10.160;2023-03-01T01:24:02;37.60;;;20.70;;
2474;SDS011;1248;48.694;10.160;2023-03-01T01:26:30;27.47;;;18.20;;
2474;SDS011;1248;48.694;10.160;2023-03-01T01:28:58;26.47;;;18.57;;
2474;SDS011;1248;48.694;10.160;2023-03-01T01:31:26;29.40;;;20.20;;
2474;SDS011;1248;48.694;10.160;2023-03-01T01:33:54;28.60;;;21.57;;
2474;SDS011;1248;48.694;10.160;2023-03-01T01:36:22;28.60;;;19.10;;
2474;SDS011;1248;48.694;10.160;2023-03-01T01:38:51;30.33;;;19.97;;
2474;SDS011;1248;48.694;10.160;2023-03-01T01:41:18;28.63;;;20.10;;
2474;SDS011;1248;48.694;10.160;2023-03-01T01:43:47;34.17;;;21.00;;
2474;SDS011;1248;48.694;10.160;2023-03-01T01:46:25;30.70;;;20.53;;
2474;SDS011;1248;48.694;10.160;2023-03-01T01:48:55;32.50;;;20.50;;
2474;SDS011;1248;48.694;10.160;2023-03-01T01:51:27;27.80;;;18.77;;
2474;SDS011;1248;48.694;10.160;2023-03-01T01:54:05;33.50;;;18.80;;
2474;SDS011;1248;48.694;10.160;2023-03-01T01:56:36;38.90;;;19.70;;
2474;SDS011;1248;48.694;10.160;2023-03-01T01:59:04;34.93;;;20.03;;
2474;SDS011;1248;48.694;10.160;2023-03-01T02:01:31;36.07;;;21.67;;
2474;SDS011;1248;48.694;10.160;2023-03-01T02:03:58;26.77;;;18.73;;
2474;SDS011;1248;48.694;10.160;2023-03-01T02:06:27;27.80;;;19.47;;
2474;SDS011;1248;48.694;10.160;2023-03-01T02:08:57;32.67;;;20.87;;
2474;SDS011;1248;48.694;10.160;2023-03-01T02:11:28;27.90;;;19.13;;
2474;SDS011;1248;48.694;10.160;2023-03-01T02:13:56;32.20;;;19.80;;
2474;SDS011;1248;48.694;10.160;2023-03-01T02:16:23;31.97;;;20.33;;
2474;SDS011;1248;48.694;10.160;2023-03-01T02:18:52;32.00;;;20.53;;
2474;SDS011;1248;48.694;10.160;2023-03-01T02:21:29;26.40;;;19.97;;
2474;SDS011;1248;48.694;10.160;2023-03-01T02:24:01;30.23;;;19.70;;
2474;SDS011;1248;48.694;10.160;2023-03-01T02:26:34;29.13;;;20.20;;
2474;SDS011;1248;48.694;10.160;2023-03-01T02:29:05;28.33;;;18.13;;
2474;SDS011;1248;48.694;10.160;2023-03-01T02:31:32;31.17;;;18.97;;
2474;SDS011;1248;48.694;10.160;2023-03-01T02:34:08;36.33;;;20.90;;
2474;SDS011;1248;48.694;10.160;2023-03-01T02:36:38;27.73;;;18.93;;
2474;SDS011;1248;48.694;10.160;2023-03-01T02:39:07;31.83;;;20.40;;
2474;SDS011;1248;48.694;10.160;2023-03-01T02:41:41;39.20;;;20.50;;
2474;SDS011;1248;48.694;10.160;2023-03-01T02:44:11;31.63;;;19.43;;
2474;SDS011;1248;48.694;10.160;2023-03-01T02:46:41;32.73;;;21.00;;
2474;SDS011;1248;48.694;10.160;2023-03-01T02:49:20;30.97;;;21.40;;
2474;SDS011;1248;48.694;10.160;2023-03-01T02:51:54;35.60;;;22.30;;
2474;SDS011;1248;48.694;10.160;2023-03-01T02:54:36;29.80;;;19.40;;
2474;SDS011;1248;48.694;10.160;2023-03-01T02:57:07;36.70;;;21.70;;
2474;SDS011;1248;48.694;10.160;2023-03-01T02:59:35;31.67;;;20.70;;
2474;SDS011;1248;48.694;10.160;2023-03-01T03:02:06;37.80;;;21.43;;
2474;SDS011;1248;48.694;10.160;2023-03-01T03:04:33;35.03;;;22.97;;
2474;SDS011;1248;48.694;10.160;2023-03-01T03:07:01;33.33;;;20.97;;
2474;SDS011;1248;48.694;10.160;2023-03-01T03:09:28;33.03;;;20.07;;
2474;SDS011;1248;48.694;10.160;2023-03-01T03:11:55;29.80;;;20.47;;
2474;SDS011;1248;48.694;10.160;2023-03-01T03:14:22;29.03;;;20.40;;
2474;SDS011;1248;48.694;10.160;2023-03-01T03:16:50;30.50;;;20.53;;
2474;SDS011;1248;48.694;10.160;2023-03-01T03:19:18;33.30;;;21.13;;
2474;SDS011;1248;48.694;10.160;2023-03-01T03:21:45;30.23;;;19.73;;
2474;SDS011;1248;48.694;10.160;2023-03-01T03:24:13;34.07;;;21.63;;
2474;SDS011;1248;48.694;10.160;2023-03-01T03:26:40;35.30;;;22.50;;
2474;SDS011;1248;48.694;10.160;2023-03-01T03:29:07;37.10;;;21.43;;
2474;SDS011;1248;48.694;10.160;2023-03-01T03:31:34;30.40;;;20.97;;
2474;SDS011;1248;48.694;10.160;2023-03-01T03:34:02;30.23;;;21.20;;
2474;SDS011;1248;48.694;10.160;2023-03-01T03:36:29;31.00;;;21.40;;
2474;SDS011;1248;48.694;10.160;2023-03-01T03:38:56;34.63;;;21.60;;
2474;SDS011;1248;48.694;10.160;2023-03-01T03:41:23;30.67;;;21.07;;
2474;SDS011;1248;48.694;10.160;2023-03-01T03:43:50;34.80;;;21.30;;
2474;SDS011;1248;48.694;10.160;2023-03-01T03:46:17;40.00;;;22.60;;
2474;SDS011;1248;48.694;10.160;2023-03-01T03:48:44;31.67;;;21.80;;
2474;SDS011;1248;48.694;10.160;2023-03-01T03:51:14;33.97;;;20.50;;
2474;SDS011;1248;48.694;10.160;2023-03-01T03:53:42;32.93;;;22.30;;
2474;SDS011;1248;48.694;10.160;2023-03-01T03:56:10;34.20;;;20.20;;
2474;SDS011;1248;48.694;10.160;2023-03-01T03:58:37;38.20;;;21.07;;
2474;SDS011;1248;48.694;10.160;2023-03-01T04:01:04;39.47;;;22.77;;
2474;SDS011;1248;48.694;10.160;2023-03-01T04:03:32;34.73;;;22.57;;
2474;SDS011;1248;48.694;10.160;2023-03-01T04:06:00;33.00;;;20.90;;
2474;SDS011;1248;48.694;10.160;2023-03-01T04:08:29;34.97;;;20.30;;
2474;SDS011;1248;48.694;10.160;2023-03-01T04:10:57;30.93;;;19.60;;
2474;SDS011;1248;48.694;10.160;2023-03-01T04:13:46;36.40;;;22.90;;
2474;SDS011;1248;48.694;10.160;2023-03-01T04:16:13;32.20;;;21.93;;
2474;SDS011;1248;48.694;10.160;2023-03-01T04:18:40;32.30;;;20.57;;
2474;SDS011;1248;48.694;10.160;2023-03-01T04:21:07;41.00;;;21.93;;
2474;SDS011;1248;48.694;10.160;2023-03-01T04:23:36;33.30;;;21.40;;
2474;SDS011;1248;48.694;10.160;2023-03-01T04:26:03;34.10;;;20.77;;
2474;SDS011;1248;48.694;10.160;2023-03-01T04:28:31;34.50;;;23.17;;
2474;SDS011;1248;48.694;10.160;2023-03-01T04:31:02;38.60;;;23.17;;
2474;SDS011;1248;48.694;10.160;2023-03-01T04:33:38;31.80;;;19.67;;
2474;SDS011;1248;48.694;10.160;2023-03-01T04:36:07;29.23;;;19.33;;
2474;SDS011;1248;48.694;10.160;2023-03-01T04:38:36;37.20;;;22.17;;
2474;SDS011;1248;48.694;10.160;2023-03-01T04:41:04;34.63;;;20.20;;
2474;SDS011;1248;48.694;10.160;2023-03-01T04:43:31;35.33;;;22.43;;
2474;SDS011;1248;48.694;10.160;2023-03-01T04:46:00;36.63;;;21.77;;
2474;SDS011;1248;48.694;10.160;2023-03-01T04:51:04;31.73;;;20.87;;
2474;SDS011;1248;48.694;10.160;2023-03-01T04:53:32;34.10;;;21.47;;
2474;SDS011;1248;48.694;10.160;2023-03-01T04:56:03;32.27;;;20.80;;
2474;SDS011;1248;48.694;10.160;2023-03-01T04:58:30;31.83;;;21.43;;
2474;SDS011;1248;48.694;10.160;2023-03-01T05:00:57;32.23;;;20.60;;
2474;SDS011;1248;48.694;10.160;2023-03-01T05:03:25;29.40;;;22.13;;
2474;SDS011;1248;48.694;10.160;2023-03-01T05:05:52;38.77;;;22.90;;
2474;SDS011;1248;48.694;10.160;2023-03-01T05:08:19;44.10;;;21.63;;
2474;SDS011;1248;48.694;10.160;2023-03-01T05:10:48;37.00;;;21.83;;
2474;SDS011;1248;48.694;10.160;2023-03-01T05:13:18;36.53;;;23.53;;
2474;SDS011;1248;48.694;10.160;2023-03-01T05:15:47;30.97;;;22.20;;
2474;SDS011;1248;48.694;10.160;2023-03-01T05:18:15;32.10;;;21.97;;
2474;SDS011;1248;48.694;10.160;2023-03-01T05:20:42;30.30;;;19.90;;
2474;SDS011;1248;48.694;10.160;2023-03-01T05:23:10;32.43;;;20.73;;
2474;SDS011;1248;48.694;10.160;2023-03-01T05:25:37;30.70;;;19.87;;
2474;SDS011;1248;48.694;10.160;2023-03-01T05:28:06;38.70;;;21.00;;
2474;SDS011;1248;48.694;10.160;2023-03-01T05:30:36;33.67;;;22.03;;
2474;SDS011;1248;48.694;10.160;2023-03-01T05:33:05;29.03;;;21.00;;
2474;SDS011;1248;48.694;10.160;2023-03-01T05:35:39;39.90;;;21.80;;
2474;SDS011;1248;48.694;10.160;2023-03-01T05:38:06;33.60;;;21.73;;
2474;SDS011;1248;48.694;10.160;2023-03-01T05:40:33;36.17;;;23.03;;
2474;SDS011;1248;48.694;10.160;2023-03-01T05:43:01;34.33;;;21.93;;
2474;SDS011;1248;48.694;10.160;2023-03-01T05:45:30;38.17;;;25.40;;
2474;SDS011;1248;48.694;10.160;2023-03-01T05:48:00;36.80;;;23.93;;
2474;SDS011;1248;48.694;10.160;2023-03-01T05:50:27;39.97;;;25.20;;
2474;SDS011;1248;48.694;10.160;2023-03-01T05:52:59;41.33;;;24.13;;
2474;SDS011;1248;48.694;10.160;2023-03-01T05:55:27;41.17;;;23.70;;
2474;SDS011;1248;48.694;10.160;2023-03-01T05:57:57;37.30;;;23.90;;
2474;SDS011;1248;48.694;10.160;2023-03-01T06:00:25;49.50;;;24.07;;
2474;SDS011;1248;48.694;10.160;2023-03-01T06:02:53;38.27;;;23.80;;
2474;SDS011;1248;48.694;10.160;2023-03-01T06:05:22;39.10;;;22.77;;
2474;SDS011;1248;48.694;10.160;2023-03-01T06:07:49;41.00;;;25.40;;
2474;SDS011;1248;48.694;10.160;2023-03-01T06:10:17;43.30;;;24.07;;
2474;SDS011;1248;48.694;10.160;2023-03-01T06:12:45;37.30;;;23.50;;
2474;SDS011;1248;48.694;10.160;2023-03-01T06:15:14;36.70;;;22.43;;
2474;SDS011;1248;48.694;10.160;2023-03-01T06:17:43;37.53;;;24.00;;
2474;SDS011;1248;48.694;10.160;2023-03-01T06:20:12;36.13;;;23.43;;
2474;SDS011;1248;48.694;10.160;2023-03-01T06:22:42;33.83;;;23.50;;
2474;SDS011;1248;48.694;10.160;2023-03-01T06:25:10;38.30;;;23.00;;
2474;SDS011;1248;48.694;10.160;2023-03-01T06:27:38;40.90;;;24.93;;
2474;SDS011;1248;48.694;10.160;2023-03-01T06:30:06;33.90;;;22.73;;
2474;SDS011;1248;48.694;10.160;2023-03-01T06:32:33;40.67;;;24.20;;
2474;SDS011;1248;48.694;10.160;2023-03-01T06:35:00;40.90;;;23.57;;
2474;SDS011;1248;48.694;10.160;2023-03-01T06:37:27;35.17;;;23.27;;
2474;SDS011;1248;48.694;10.160;2023-03-01T06:39:56;38.67;;;25.80;;
2474;SDS011;1248;48.694;10.160;2023-03-01T06:42:23;39.20;;;23.67;;
2474;SDS011;1248;48.694;10.160;2023-03-01T06:44:50;40.70;;;24.70;;
2474;SDS011;1248;48.694;10.160;2023-03-01T06:47:17;42.27;;;24.70;;
2474;SDS011;1248;48.694;10.160;2023-03-01T06:49:44;41.80;;;26.37;;
2474;SDS011;1248;48.694;10.160;2023-03-01T06:52:11;41.27;;;22.80;;
2474;SDS011;1248;48.694;10.160;2023-03-01T06:54:38;39.20;;;24.63;;
2474;SDS011;1248;48.694;10.160;2023-03-01T06:57:07;42.43;;;24.53;;
2474;SDS011;1248;48.694;10.160;2023-03-01T06:59:34;43.33;;;26.13;;
2474;SDS011;1248;48.694;10.160;2023-03-01T07:02:01;39.30;;;25.70;;
2474;SDS011;1248;48.694;10.160;2023-03-01T07:04:28;34.00;;;23.27;;
2474;SDS011;1248;48.694;10.160;2023-03-01T07:06:56;40.67;;;25.03;;
2474;SDS011;1248;48.694;10.160;2023-03-01T07:09:23;40.50;;;25.70;;
2474;SDS011;1248;48.694;10.160;2023-03-01T07:11:51;42.20;;;24.23;;
2474;SDS011;1248;48.694;10.160;2023-03-01T07:14:19;38.83;;;23.60;;
2474;SDS011;1248;48.694;10.160;2023-03-01T07:16:46;38.43;;;24.07;;
2474;SDS011;1248;48.694;10.160;2023-03-01T07:19:13;34.20;;;23.03;;
2474;SDS011;1248;48.694;10.160;2023-03-01T07:21:40;41.53;;;24.83;;
2474;SDS011;1248;48.694;10.160;2023-03-01T07:24:07;35.23;;;23.63;;
2474;SDS011;1248;48.694;10.160;2023-03-01T07:26:35;42.63;;;25.70;;
2474;SDS011;1248;48.694;10.160;2023-03-01T07:29:02;42.33;;;25.60;;
2474;SDS011;1248;48.694;10.160;2023-03-01T07:31:34;36.70;;;24.67;;
2474;SDS011;1248;48.694;10.160;2023-03-01T07:34:01;37.33;;;22.47;;
2474;SDS011;1248;48.694;10.160;2023-03-01T07:36:28;46.27;;;23.67;;
2474;SDS011;1248;48.694;10.160;2023-03-01T07:38:55;35.90;;;23.67;;
2474;SDS011;1248;48.694;10.160;2023-03-01T07:41:23;39.30;;;22.83;;
2474;SDS011;1248;48.694;10.160;2023-03-01T07:43:50;37.50;;;23.37;;
2474;SDS011;1248;48.694;10.160;2023-03-01T07:46:17;42.47;;;23.43;;
2474;SDS011;1248;48.694;10.160;2023-03-01T07:48:46;39.97;;;23.27;;
2474;SDS011;1248;48.694;10.160;2023-03-01T07:51:13;38.27;;;24.73;;
2474;SDS011;1248;48.694;10.160;2023-03-01T07:53:40;38.53;;;23.60;;
2474;SDS011;1248;48.694;10.160;2023-03-01T07:56:08;33.07;;;21.30;;
2474;SDS011;1248;48.694;10.160;2023-03-01T07:58:37;40.77;;;22.90;;
2474;SDS011;1248;48.694;10.160;2023-03-01T08:01:05;37.80;;;21.70;;
2474;SDS011;1248;48.694;10.160;2023-03-01T08:03:33;36.60;;;22.07;;
2474;SDS011;1248;48.694;10.160;2023-03-01T08:06:02;37.73;;;22.70;;
2474;SDS011;1248;48.694;10.160;2023-03-01T08:08:31;35.30;;;21.00;;
2474;SDS011;1248;48.694;10.160;2023-03-01T08:10:59;34.37;;;22.50;;
2474;SDS011;1248;48.694;10.160;2023-03-01T08:13:26;33.67;;;20.93;;
2474;SDS011;1248;48.694;10.160;2023-03-01T08:15:54;36.83;;;22.87;;
2474;SDS011;1248;48.694;10.160;2023-03-01T08:18:21;36.53;;;22.10;;
2474;SDS011;1248;48.694;10.160;2023-03-01T08:20:48;36.37;;;21.00;;
2474;SDS011;1248;48.694;10.160;2023-03-01T08:23:17;29.80;;;19.50;;
2474;SDS011;1248;48.694;10.160;2023-03-01T08:25:44;36.43;;;22.10;;
2474;SDS011;1248;48.694;10.160;2023-03-01T08:28:11;38.30;;;21.53;;
2474;SDS011;1248;48.694;10.160;2023-03-01T08:30:38;28.03;;;20.97;;
2474;SDS011;1248;48.694;10.160;2023-03-01T08:33:05;32.27;;;20.97;;
2474;SDS011;1248;48.694;10.160;2023-03-01T08:35:32;32.60;;;20.67;;
2474;SDS011;1248;48.694;10.160;2023-03-01T08:37:59;33.17;;;22.50;;
2474;SDS011;1248;48.694;10.160;2023-03-01T08:40:27;28.23;;;20.63;;
2474;SDS011;1248;48.694;10.160;2023-03-01T08:42:54;28.47;;;19.93;;
2474;SDS011;1248;48.694;10.160;2023-03-01T08:45:22;31.10;;;19.27;;
2474;SDS011;1248;48.694;10.160;2023-03-01T08:47:51;30.37;;;20.10;;
2474;SDS011;1248;48.694;10.160;2023-03-01T08:50:18;29.80;;;19.10;;
2474;SDS011;1248;48.694;10.160;2023-03-01T08:52:46;30.77;;;20.10;;
2474;SDS011;1248;48.694;10.160;2023-03-01T08:55:14;29.20;;;18.80;;
2474;SDS011;1248;48.694;10.160;2023-03-01T08:57:44;27.50;;;18.10;;
2474;SDS011;1248;48.694;10.160;2023-03-01T09:00:11;26.47;;;18.10;;
2474;SDS011;1248;48.694;10.160;2023-03-01T09:02:40;36.50;;;20.77;;
2474;SDS011;1248;48.694;10.160;2023-03-01T09:05:08;31.87;;;19.23;;
2474;SDS011;1248;48.694;10.160;2023-03-01T09:07:35;33.10;;;20.53;;
2474;SDS011;1248;48.694;10.160;2023-03-01T09:10:02;27.80;;;19.80;;
2474;SDS011;1248;48.694;10.160;2023-03-01T09:12:30;33.33;;;20.20;;
2474;SDS011;1248;48.694;10.160;2023-03-01T09:14:58;28.47;;;19.83;;
2474;SDS011;1248;48.694;10.160;2023-03-01T09:17:25;27.37;;;18.37;;
2474;SDS011;1248;48.694;10.160;2023-03-01T09:19:52;30.33;;;19.33;;
2474;SDS011;1248;48.694;10.160;2023-03-01T09:22:20;42.07;;;21.13;;
2474;SDS011;1248;48.694;10.160;2023-03-01T09:24:47;27.33;;;19.43;;
2474;SDS011;1248;48.694;10.160;2023-03-01T09:27:14;29.10;;;19.93;;
2474;SDS011;1248;48.694;10.160;2023-03-01T09:29:44;32.90;;;18.90;;
2474;SDS011;1248;48.694;10.160;2023-03-01T09:32:12;34.00;;;19.60;;
2474;SDS011;1248;48.694;10.160;2023-03-01T09:34:39;32.23;;;19.87;;
2474;SDS011;1248;48.694;10.160;2023-03-01T09:37:20;31.07;;;19.77;;
2474;SDS011;1248;48.694;10.160;2023-03-01T09:39:47;30.03;;;20.00;;
2474;SDS011;1248;48.694;10.160;2023-03-01T09:42:14;32.33;;;19.10;;
2474;SDS011;1248;48.694;10.160;2023-03-01T09:44:43;30.00;;;20.33;;
2474;SDS011;1248;48.694;10.160;2023-03-01T09:47:16;28.60;;;20.40;;
2474;SDS011;1248;48.694;10.160;2023-03-01T09:49:45;29.50;;;19.17;;
2474;SDS011;1248;48.694;10.160;2023-03-01T09:52:19;28.90;;;18.90;;
2474;SDS011;1248;48.694;10.160;2023-03-01T09:54:51;33.47;;;20.10;;
2474;SDS011;1248;48.694;10.160;2023-03-01T09:57:24;36.80;;;19.80;;
2474;SDS011;1248;48.694;10.160;2023-03-01T10:00:02;26.27;;;18.53;;
2474;SDS011;1248;48.694;10.160;2023-03-01T10:02:41;29.00;;;19.10;;
2474;SDS011;1248;48.694;10.160;2023-03-01T10:05:26;27.73;;;17.20;;
2474;SDS011;1248;48.694;10.160;2023-03-01T10:10:56;24.10;;;17.57;;
2474;SDS011;1248;48.694;10.160;2023-03-01T10:13:25;26.27;;;19.17;;
2474;SDS011;1248;48.694;10.160;2023-03-01T10:15:56;27.23;;;17.40;;
2474;SDS011;1248;48.694;10.160;2023-03-01T10:18:28;29.47;;;17.33;;
2474;SDS011;1248;48.694;10.160;2023-03-01T10:20:59;29.63;;;18.30;;
2474;SDS011;1248;48.694;10.160;2023-03-01T10:23:27;30.03;;;17.90;;
2474;SDS011;1248;48.694;10.160;2023-03-01T10:26:01;25.53;;;17.63;;
2474;SDS011;1248;48.694;10.160;2023-03-01T10:28:37;25.47;;;17.03;;
2474;SDS011;1248;48.694;10.160;2023-03-01T10:31:11;22.43;;;16.70;;
2474;SDS011;1248;48.694;10.160;2023-03-01T10:33:40;34.50;;;17.70;;
2474;SDS011;1248;48.694;10.160;2023-03-01T10:36:07;37.13;;;18.90;;
2474;SDS011;1248;48.694;10.160;2023-03-01T10:38:46;29.60;;;15.87;;
2474;SDS011;1248;48.694;10.160;2023-03-01T10:41:15;24.97;;;17.73;;
2474;SDS011;1248;48.694;10.160;2023-03-01T10:43:43;27.47;;;17.37;;
2474;SDS011;1248;48.694;10.160;2023-03-01T10:46:22;23.77;;;15.70;;
2474;SDS011;1248;48.694;10.160;2023-03-01T10:51:37;23.40;;;15.20;;
2474;SDS011;1248;48.694;10.160;2023-03-01T10:54:09;21.70;;;15.63;;
2474;SDS011;1248;48.694;10.160;2023-03-01T10:56:46;23.47;;;16.00;;
2474;SDS011;1248;48.694;10.160;2023-03-01T10:59:28;20.27;;;16.23;;
2474;SDS011;1248;48.694;10.160;2023-03-01T11:02:14;27.30;;;15.90;;
2474;SDS011;1248;48.694;10.160;2023-03-01T11:05:00;19.27;;;14.60;;
2474;SDS011;1248;48.694;10.160;2023-03-01T11:07:29;23.60;;;14.50;;
2474;SDS011;1248;48.694;10.160;2023-03-01T11:09:56;26.30;;;15.27;;
2474;SDS011;1248;48.694;10.160;2023-03-01T11:12:23;23.33;;;15.80;;
2474;SDS011;1248;48.694;10.160;2023-03-01T11:14:51;22.93;;;15.57;;
2474;SDS011;1248;48.694;10.160;2023-03-01T11:17:21;27.73;;;16.47;;
2474;SDS011;1248;48.694;10.160;2023-03-01T11:20:02;22.00;;;15.37;;
2474;SDS011;1248;48.694;10.160;2023-03-01T11:22:34;24.47;;;16.57;;
2474;SDS011;1248;48.694;10.160;2023-03-01T11:25:02;23.93;;;15.73;;
2474;SDS011;1248;48.694;10.160;2023-03-01T11:27:31;23.40;;;15.33;;
2474;SDS011;1248;48.694;10.160;2023-03-01T11:29:59;27.47;;;15.93;;
2474;SDS011;1248;48.694;10.160;2023-03-01T11:32:31;26.40;;;16.73;;
2474;SDS011;1248;48.694;10.160;2023-03-01T11:35:05;24.47;;;16.30;;
2474;SDS011;1248;48.694;10.160;2023-03-01T11:37:38;21.97;;;14.10;;
2474;SDS011;1248;48.694;10.160;2023-03-01T11:40:11;27.50;;;15.83;;
2474;SDS011;1248;48.694;10.160;2023-03-01T11:42:43;22.73;;;15.67;;
2474;SDS011;1248;48.694;10.160;2023-03-01T11:45:15;24.00;;;16.87;;
2474;SDS011;1248;48.694;10.160;2023-03-01T11:47:49;26.43;;;15.93;;
2474;SDS011;1248;48.694;10.160;2023-03-01T11:50:27;23.67;;;15.17;;
2474;SDS011;1248;48.694;10.160;2023-03-01T11:52:59;22.83;;;15.67;;
2474;SDS011;1248;48.694;10.160;2023-03-01T11:55:39;24.40;;;14.73;;
2474;SDS011;1248;48.694;10.160;2023-03-01T12:01:10;19.70;;;14.60;;
2474;SDS011;1248;48.694;10.160;2023-03-01T12:03:49;22.23;;;16.40;;
2474;SDS011;1248;48.694;10.160;2023-03-01T12:06:35;27.03;;;16.10;;
2474;SDS011;1248;48.694;10.160;2023-03-01T12:09:12;21.97;;;15.20;;
2474;SDS011;1248;48.694;10.160;2023-03-01T12:11:51;20.20;;;15.60;;
2474;SDS011;1248;48.694;10.160;2023-03-01T12:14:31;20.97;;;14.83;;
2474;SDS011;1248;48.694;10.160;2023-03-01T12:20:09;25.33;;;14.73;;
2474;SDS011;1248;48.694;10.160;2023-03-01T12:22:46;19.07;;;14.00;;
2474;SDS011;1248;48.694;10.160;2023-03-01T12:25:25;20.40;;;13.13;;
2474;SDS011;1248;48.694;10.160;2023-03-01T12:28:10;19.03;;;12.73;;
2474;SDS011;1248;48.694;10.160;2023-03-01T12:31:00;19.70;;;14.10;;
2474;SDS011;1248;48.694;10.160;2023-03-01T12:33:49;21.60;;;14.17;;
2474;SDS011;1248;48.694;10.160;2023-03-01T12:36:24;22.00;;;13.97;;
2474;SDS011;1248;48.694;10.160;2023-03-01T12:39:14;19.00;;;13.90;;
2474;SDS011;1248;48.694;10.160;2023-03-01T12:41:51;20.47;;;14.07;;
2474;SDS011;1248;48.694;10.160;2023-03-01T12:44:29;19.80;;;13.90;;
2474;SDS011;1248;48.694;10.160;2023-03-01T12:47:05;20.37;;;13.80;;
2474;SDS011;1248;48.694;10.160;2023-03-01T12:49:38;18.30;;;14.40;;
2474;SDS011;1248;48.694;10.160;2023-03-01T12:52:09;19.10;;;13.23;;
2474;SDS011;1248;48.694;10.160;2023-03-01T12:54:39;17.70;;;14.23;;
2474;SDS011;1248;48.694;10.160;2023-03-01T12:57:08;16.17;;;12.13;;
2474;SDS011;1248;48.694;10.160;2023-03-01T12:59:42;19.37;;;12.00;;
2474;SDS011;1248;48.694;10.160;2023-03-01T13:02:16;21.43;;;12.80;;
2474;SDS011;1248;48.694;10.160;2023-03-01T13:04:52;18.40;;;13.13;;
2474;SDS011;1248;48.694;10.160;2023-03-01T13:07:25;18.40;;;12.53;;
2474;SDS011;1248;48.694;10.160;2023-03-01T13:10:01;19.30;;;12.70;;
2474;SDS011;1248;48.694;10.160;2023-03-01T13:12:42;22.67;;;12.90;;
2474;SDS011;1248;48.694;10.160;2023-03-01T13:15:24;18.90;;;12.90;;
2474;SDS011;1248;48.694;10.160;2023-03-01T13:17:55;18.80;;;13.70;;
2474;SDS011;1248;48.694;10.160;2023-03-01T13:20:24;16.83;;;13.00;;
2474;SDS011;1248;48.694;10.160;2023-03-01T13:23:00;17.83;;;13.07;;
2474;SDS011;1248;48.694;10.160;2023-03-01T13:25:31;18.63;;;14.83;;
2474;SDS011;1248;48.694;10.160;2023-03-01T13:31:03;16.20;;;11.60;;
2474;SDS011;1248;48.694;10.160;2023-03-01T13:33:41;14.83;;;12.07;;
2474;SDS011;1248;48.694;10.160;2023-03-01T13:36:10;18.30;;;12.80;;
2474;SDS011;1248;48.694;10.160;2023-03-01T13:38:46;19.60;;;13.40;;
2474;SDS011;1248;48.694;10.160;2023-03-01T13:41:16;17.63;;;12.97;;
2474;SDS011;1248;48.694;10.160;2023-03-01T13:43:44;23.73;;;14.80;;
2474;SDS011;1248;48.694;10.160;2023-03-01T13:46:15;19.20;;;13.30;;
2474;SDS011;1248;48.694;10.160;2023-03-01T13:48:45;17.60;;;13.03;;
2474;SDS011;1248;48.694;10.160;2023-03-01T13:51:12;19.07;;;14.87;;
2474;SDS011;1248;48.694;10.160;2023-03-01T13:53:40;20.50;;;14.43;;
2474;SDS011;1248;48.694;10.160;2023-03-01T13:56:09;19.40;;;14.20;;
2474;SDS011;1248;48.694;10.160;2023-03-01T13:58:50;17.50;;;13.43;;
2474;SDS011;1248;48.694;10.160;2023-03-01T14:01:26;17.00;;;11.83;;
2474;SDS011;1248;48.694;10.160;2023-03-01T14:03:55;18.50;;;13.63;;
2474;SDS011;1248;48.694;10.160;2023-03-01T14:06:23;17.60;;;13.63;;
2474;SDS011;1248;48.694;10.160;2023-03-01T14:08:52;18.10;;;15.53;;
2474;SDS011;1248;48.694;10.160;2023-03-01T14:11:39;20.10;;;13.60;;
2474;SDS011;1248;48.694;10.160;2023-03-01T14:17:09;17.27;;;14.03;;
2474;SDS011;1248;48.694;10.160;2023-03-01T14:19:45;22.30;;;15.43;;
2474;SDS011;1248;48.694;10.160;2023-03-01T14:22:15;27.37;;;14.20;;
2474;SDS011;1248;48.694;10.160;2023-03-01T14:24:46;21.40;;;15.47;;
2474;SDS011;1248;48.694;10.160;2023-03-01T14:27:15;19.93;;;15.00;;
2474;SDS011;1248;48.694;10.160;2023-03-01T14:29:45;22.30;;;15.90;;
2474;SDS011;1248;48.694;10.160;2023-03-01T14:32:22;19.80;;;15.53;;
2474;SDS011;1248;48.694;10.160;2023-03-01T14:34:51;20.13;;;14.93;;
2474;SDS011;1248;48.694;10.160;2023-03-01T14:37:19;20.07;;;15.93;;
2474;SDS011;1248;48.694;10.160;2023-03-01T14:39:48;22.93;;;14.93;;
2474;SDS011;1248;48.694;10.160;2023-03-01T14:42:15;20.93;;;14.20;;
2474;SDS011;1248;48.694;10.160;2023-03-01T14:44:45;20.50;;;15.33;;
2474;SDS011;1248;48.694;10.160;2023-03-01T14:47:14;21.93;;;14.83;;
2474;SDS011;1248;48.694;10.160;2023-03-01T14:49:48;21.40;;;14.60;;
2474;SDS011;1248;48.694;10.160;2023-03-01T14:52:18;19.93;;;14.90;;
2474;SDS011;1248;48.694;10.160;2023-03-01T14:54:47;20.90;;;14.93;;
2474;SDS011;1248;48.694;10.160;2023-03-01T14:57:15;20.90;;;14.27;;
2474;SDS011;1248;48.694;10.160;2023-03-01T14:59:45;18.60;;;13.90;;
2474;SDS011;1248;48.694;10.160;2023-03-01T15:02:13;23.33;;;15.13;;
2474;SDS011;1248;48.694;10.160;2023-03-01T15:04:45;23.97;;;15.20;;
2474;SDS011;1248;48.694;10.160;2023-03-01T15:07:13;15.63;;;13.57;;
2474;SDS011;1248;48.694;10.160;2023-03-01T15:09:40;18.53;;;13.30;;